createdAt,value
2018-07-21T00:02:24.366Z,20.72
2018-07-21T00:04:51.736Z,20.72
2018-07-21T00:07:19.147Z,20.64
2018-07-21T00:09:46.604Z,20.59
2018-07-21T00:12:14.084Z,20.64
2018-07-21T00:14:41.522Z,20.61
2018-07-21T00:17:08.947Z,20.61
2018-07-21T00:19:36.374Z,20.68
2018-07-21T00:22:03.808Z,20.62
2018-07-21T00:24:31.282Z,20.52
2018-07-21T00:26:58.703Z,20.47
2018-07-21T00:29:26.145Z,20.48
2018-07-21T00:31:53.566Z,20.43
2018-07-21T00:34:20.993Z,20.27
2018-07-21T00:36:48.920Z,20.24
2018-07-21T00:39:16.404Z,20.36
2018-07-21T00:41:43.829Z,20.43
2018-07-21T00:44:11.266Z,20.27
2018-07-21T00:46:38.682Z,20.26
2018-07-21T00:49:06.144Z,20.26
2018-07-21T00:51:33.571Z,20.22
2018-07-21T00:54:01.003Z,20.26
2018-07-21T00:56:28.518Z,20.38
2018-07-21T00:58:55.976Z,20.41
2018-07-21T01:01:23.402Z,20.47
2018-07-21T01:03:50.910Z,20.45
2018-07-21T01:06:18.341Z,20.49
2018-07-21T01:08:45.791Z,20.51
2018-07-21T01:11:13.244Z,20.51
2018-07-21T01:13:40.673Z,20.44
2018-07-21T01:16:08.144Z,20.41
2018-07-21T01:18:35.627Z,20.43
2018-07-21T01:21:03.107Z,20.36
2018-07-21T01:23:30.529Z,20.34
2018-07-21T01:25:57.994Z,20.35
2018-07-21T01:28:25.466Z,20.36
2018-07-21T01:30:52.941Z,20.40
2018-07-21T01:33:20.380Z,20.43
2018-07-21T01:35:47.772Z,20.43
2018-07-21T01:38:15.238Z,20.36
2018-07-21T01:40:42.736Z,20.29
2018-07-21T01:43:10.185Z,20.18
2018-07-21T01:45:37.694Z,20.14
2018-07-21T01:48:05.272Z,20.17
2018-07-21T01:50:33.365Z,20.27
2018-07-21T01:53:00.799Z,20.33
2018-07-21T01:55:28.206Z,20.39
2018-07-21T01:57:55.694Z,20.43
2018-07-21T02:00:23.146Z,20.41
2018-07-21T02:02:50.595Z,20.26
2018-07-21T02:05:18.460Z,20.26
2018-07-21T02:07:45.895Z,20.23
2018-07-21T02:10:13.343Z,20.20
2018-07-21T02:12:40.832Z,20.24
2018-07-21T02:15:08.283Z,20.25
2018-07-21T02:17:35.720Z,20.24
2018-07-21T02:20:03.168Z,20.20
2018-07-21T02:22:30.644Z,20.08
2018-07-21T02:24:58.140Z,20.13
2018-07-21T02:27:25.547Z,20.26
2018-07-21T02:29:52.966Z,20.16
2018-07-21T02:32:20.443Z,20.01
2018-07-21T02:34:47.853Z,19.92
2018-07-21T02:37:15.303Z,20.00
2018-07-21T02:39:42.777Z,19.91
2018-07-21T02:42:10.227Z,19.79
2018-07-21T02:44:37.706Z,19.69
2018-07-21T02:47:05.138Z,19.62
2018-07-21T02:49:32.600Z,19.64
2018-07-21T02:52:00.007Z,19.65
2018-07-21T02:54:27.499Z,19.72
2018-07-21T02:56:54.947Z,19.74
2018-07-21T02:59:22.455Z,19.65
2018-07-21T03:01:49.887Z,19.68
2018-07-21T03:04:17.384Z,19.78
2018-07-21T03:06:44.869Z,19.85
2018-07-21T03:09:12.401Z,19.83
2018-07-21T03:11:39.895Z,19.71
2018-07-21T03:14:07.345Z,19.68
2018-07-21T03:16:34.795Z,19.71
2018-07-21T03:19:02.232Z,19.68
2018-07-21T03:21:29.721Z,19.70
2018-07-21T03:23:57.301Z,19.67
2018-07-21T03:26:24.854Z,19.69
2018-07-21T03:28:52.353Z,19.76
2018-07-21T03:31:19.821Z,19.75
2018-07-21T03:33:47.261Z,19.67
2018-07-21T03:36:14.711Z,19.61
2018-07-21T03:38:42.188Z,19.64
2018-07-21T03:41:09.641Z,19.62
2018-07-21T03:43:37.139Z,19.60
2018-07-21T03:46:04.616Z,19.55
2018-07-21T03:48:32.112Z,19.58
2018-07-21T03:50:59.579Z,19.55
2018-07-21T03:53:27.062Z,19.51
2018-07-21T03:55:54.524Z,19.54
2018-07-21T03:58:22.067Z,19.50
2018-07-21T04:00:49.533Z,19.41
2018-07-21T04:03:16.934Z,19.39
2018-07-21T04:05:44.452Z,19.41
2018-07-21T04:08:11.899Z,19.41
2018-07-21T04:10:39.309Z,19.45
2018-07-21T04:13:06.777Z,19.46
2018-07-21T04:15:34.213Z,19.36
2018-07-21T04:18:01.712Z,19.27
2018-07-21T04:20:29.118Z,19.29
2018-07-21T04:22:56.539Z,19.34
2018-07-21T04:25:23.995Z,19.38
2018-07-21T04:27:51.845Z,19.40
2018-07-21T04:30:19.284Z,19.50
2018-07-21T04:32:46.734Z,19.52
2018-07-21T04:35:14.145Z,19.56
2018-07-21T04:37:41.574Z,19.62
2018-07-21T04:40:09.133Z,19.60
2018-07-21T04:42:36.563Z,19.65
2018-07-21T04:45:04.028Z,19.67
2018-07-21T04:47:31.528Z,19.71
2018-07-21T04:49:58.958Z,19.81
2018-07-21T04:52:26.374Z,19.92
2018-07-21T04:54:53.860Z,19.99
2018-07-21T04:57:21.357Z,20.05
2018-07-21T04:59:48.865Z,20.12
2018-07-21T05:02:16.338Z,20.19
2018-07-21T05:04:43.875Z,20.18
2018-07-21T05:07:11.295Z,20.06
2018-07-21T05:09:38.787Z,20.09
2018-07-21T05:12:06.240Z,20.17
2018-07-21T05:14:33.634Z,20.28
2018-07-21T05:17:01.082Z,20.33
2018-07-21T05:19:28.592Z,20.29
2018-07-21T05:21:56.034Z,20.33
2018-07-21T05:24:23.474Z,20.32
2018-07-21T05:26:51.177Z,20.42
2018-07-21T05:29:18.576Z,20.40
2018-07-21T05:31:46.061Z,20.48
2018-07-21T05:34:13.480Z,20.56
2018-07-21T05:36:40.963Z,20.46
2018-07-21T05:39:08.472Z,20.24
2018-07-21T05:41:35.859Z,20.20
2018-07-21T05:44:03.336Z,19.94
2018-07-21T05:46:30.768Z,19.83
2018-07-21T05:48:58.269Z,19.83
2018-07-21T05:51:25.715Z,19.89
2018-07-21T05:53:53.175Z,19.69
2018-07-21T05:56:20.620Z,19.80
2018-07-21T05:58:48.045Z,20.06
2018-07-21T06:01:16.435Z,20.18
2018-07-21T06:03:44.614Z,20.34
2018-07-21T06:06:12.199Z,20.44
2018-07-21T06:08:39.692Z,20.57
2018-07-21T06:11:07.167Z,20.65
2018-07-21T06:13:34.608Z,20.67
2018-07-21T06:16:02.022Z,20.68
2018-07-21T06:18:29.531Z,20.51
2018-07-21T06:20:57.087Z,20.61
2018-07-21T06:23:24.552Z,20.75
2018-07-21T06:25:52.176Z,20.80
2018-07-21T06:28:19.611Z,20.93
2018-07-21T06:30:47.118Z,20.99
2018-07-21T06:33:15.848Z,20.89
2018-07-21T06:35:43.336Z,20.81
2018-07-21T06:38:10.811Z,20.86
2018-07-21T06:40:38.291Z,21.00
2018-07-21T06:43:05.800Z,21.06
2018-07-21T06:45:33.232Z,21.30
2018-07-21T06:48:00.722Z,21.53
2018-07-21T06:50:28.148Z,21.68
2018-07-21T06:52:55.616Z,21.71
2018-07-21T06:55:23.075Z,21.58
2018-07-21T06:57:50.507Z,21.37
2018-07-21T07:00:18.059Z,21.45
2018-07-21T07:02:45.488Z,21.64
2018-07-21T07:05:13.132Z,21.74
2018-07-21T07:07:40.610Z,21.87
2018-07-21T07:10:08.256Z,22.04
2018-07-21T07:12:35.703Z,22.15
2018-07-21T07:15:03.157Z,22.33
2018-07-21T07:17:30.640Z,22.42
2018-07-21T07:19:58.075Z,22.58
2018-07-21T07:22:25.519Z,22.66
2018-07-21T07:24:52.951Z,22.64
2018-07-21T07:27:21.443Z,22.44
2018-07-21T07:29:48.886Z,22.68
2018-07-21T07:32:16.343Z,22.72
2018-07-21T07:34:44.003Z,22.96
2018-07-21T07:37:11.493Z,23.39
2018-07-21T07:39:38.927Z,23.50
2018-07-21T07:42:06.485Z,23.42
2018-07-21T07:44:34.124Z,23.38
2018-07-21T07:47:01.612Z,23.25
2018-07-21T07:49:29.078Z,23.26
2018-07-21T07:51:56.550Z,23.29
2018-07-21T07:54:24.069Z,23.52
2018-07-21T07:56:51.550Z,23.67
2018-07-21T07:59:19.011Z,23.83
2018-07-21T08:01:46.476Z,23.99
2018-07-21T08:04:13.927Z,23.86
2018-07-21T08:06:41.369Z,24.20
2018-07-21T08:09:08.812Z,24.61
2018-07-21T08:11:36.210Z,24.93
2018-07-21T08:14:03.676Z,25.26
2018-07-21T08:16:31.149Z,24.91
2018-07-21T08:18:58.593Z,24.86
2018-07-21T08:21:26.046Z,24.89
2018-07-21T08:23:53.489Z,25.16
2018-07-21T08:26:21.201Z,25.14
2018-07-21T08:28:48.652Z,25.29
2018-07-21T08:31:16.111Z,25.01
2018-07-21T08:33:43.582Z,25.08
2018-07-21T08:36:11.047Z,25.05
2018-07-21T08:38:38.509Z,24.91
2018-07-21T08:41:05.966Z,24.73
2018-07-21T08:43:33.407Z,24.63
2018-07-21T08:46:00.955Z,24.68
2018-07-21T08:48:28.427Z,24.45
2018-07-21T08:50:56.141Z,24.04
2018-07-21T08:53:24.057Z,24.07
2018-07-21T08:55:51.625Z,24.03
2018-07-21T08:58:18.977Z,24.04
2018-07-21T09:00:46.463Z,23.91
2018-07-21T09:03:13.883Z,23.86
2018-07-21T09:05:41.377Z,23.79
2018-07-21T09:08:08.883Z,23.89
2018-07-21T09:10:36.313Z,23.92
2018-07-21T09:13:03.802Z,23.86
2018-07-21T09:15:31.266Z,23.83
2018-07-21T09:17:58.756Z,23.80
2018-07-21T09:20:26.224Z,23.94
2018-07-21T09:22:53.671Z,24.02
2018-07-21T09:25:21.163Z,24.18
2018-07-21T09:27:48.621Z,24.38
2018-07-21T09:30:16.135Z,24.47
2018-07-21T09:32:43.623Z,24.63
2018-07-21T09:35:11.252Z,24.77
2018-07-21T09:37:38.696Z,24.92
2018-07-21T09:40:06.229Z,25.15
2018-07-21T09:42:33.623Z,25.33
2018-07-21T09:45:01.146Z,25.39
2018-07-21T09:47:28.742Z,25.58
2018-07-21T09:49:56.200Z,25.89
2018-07-21T09:52:23.660Z,26.16
2018-07-21T09:54:51.089Z,26.33
2018-07-21T09:57:18.979Z,26.56
2018-07-21T09:59:46.467Z,26.72
2018-07-21T10:02:13.932Z,26.74
2018-07-21T10:04:41.395Z,26.62
2018-07-21T10:07:08.804Z,26.40
2018-07-21T10:09:36.267Z,26.82
2018-07-21T10:12:03.724Z,26.98
2018-07-21T10:14:31.581Z,27.10
2018-07-21T10:16:59.005Z,26.88
2018-07-21T10:19:26.483Z,27.07
2018-07-21T10:21:54.753Z,27.25
2018-07-21T10:24:22.575Z,27.60
2018-07-21T10:26:55.534Z,28.07
2018-07-21T10:29:23.007Z,28.01
2018-07-21T10:31:50.513Z,28.01
2018-07-21T10:34:17.942Z,27.88
2018-07-21T10:36:45.435Z,28.06
2018-07-21T10:39:12.898Z,28.04
2018-07-21T10:41:40.376Z,28.10
2018-07-21T10:44:08.057Z,28.25
2018-07-21T10:46:35.622Z,28.15
2018-07-21T10:49:03.100Z,28.15
2018-07-21T10:51:30.592Z,28.09
2018-07-21T10:53:58.019Z,28.10
2018-07-21T10:56:25.455Z,27.75
2018-07-21T10:58:53.000Z,27.96
2018-07-21T11:01:20.475Z,27.88
2018-07-21T11:03:47.933Z,27.93
2018-07-21T11:06:15.438Z,27.97
2018-07-21T11:08:42.898Z,28.19
2018-07-21T11:11:10.314Z,28.13
2018-07-21T11:13:37.777Z,28.19
2018-07-21T11:16:05.216Z,28.55
2018-07-21T11:18:32.868Z,28.79
2018-07-21T11:20:59.867Z,29.27
2018-07-21T11:23:26.923Z,29.60
2018-07-21T11:25:54.372Z,29.16
2018-07-21T11:28:21.857Z,28.45
2018-07-21T11:30:49.353Z,28.25
2018-07-21T11:33:16.907Z,28.19
2018-07-21T11:35:44.500Z,28.38
2018-07-21T11:38:11.847Z,28.66
2018-07-21T11:40:39.265Z,28.60
2018-07-21T11:43:06.720Z,28.43
2018-07-21T11:45:34.163Z,28.46
2018-07-21T11:48:01.732Z,28.64
2018-07-21T11:50:29.205Z,28.46
2018-07-21T11:52:56.683Z,28.14
2018-07-21T11:55:24.142Z,27.89
2018-07-21T11:57:51.612Z,28.09
2018-07-21T12:00:19.215Z,27.97
2018-07-21T12:02:46.745Z,27.86
2018-07-21T12:05:14.176Z,28.45
2018-07-21T12:07:41.634Z,28.55
2018-07-21T12:10:09.042Z,28.59
2018-07-21T12:12:36.709Z,28.84
2018-07-21T12:15:04.179Z,29.06
2018-07-21T12:20:05.371Z,29.42
2018-07-21T12:22:32.786Z,29.31
2018-07-21T12:25:00.317Z,28.93
2018-07-21T12:27:27.799Z,29.01
2018-07-21T12:29:55.249Z,29.27
2018-07-21T12:32:22.721Z,29.52
2018-07-21T12:34:50.211Z,29.65
2018-07-21T12:37:17.227Z,30.00
2018-07-21T12:39:44.715Z,29.99
2018-07-21T12:42:12.226Z,29.88
2018-07-21T12:44:39.792Z,29.78
2018-07-21T12:47:07.251Z,29.81
2018-07-21T12:49:34.191Z,29.58
2018-07-21T12:52:01.157Z,29.51
2018-07-21T12:54:28.678Z,28.98
2018-07-21T12:56:56.081Z,28.57
2018-07-21T12:59:23.123Z,28.33
2018-07-21T13:01:50.595Z,28.31
2018-07-21T13:04:19.793Z,28.53
2018-07-21T13:06:47.288Z,28.54
2018-07-21T13:09:14.780Z,28.62
2018-07-21T13:11:42.251Z,29.09
2018-07-21T13:14:09.219Z,29.27
2018-07-21T13:18:58.664Z,28.78
2018-07-21T13:21:25.646Z,28.70
2018-07-21T13:23:52.649Z,28.87
2018-07-21T13:26:19.653Z,29.17
2018-07-21T13:28:46.658Z,29.11
2018-07-21T13:31:13.710Z,29.46
2018-07-21T13:33:40.709Z,29.83
2018-07-21T13:36:07.657Z,29.74
2018-07-21T13:38:34.673Z,28.93
2018-07-21T13:41:01.695Z,28.50
2018-07-21T13:43:29.130Z,28.70
2018-07-21T13:45:56.563Z,29.05
2018-07-21T13:48:24.029Z,28.99
2018-07-21T13:50:51.450Z,28.79
2018-07-21T13:53:18.923Z,28.30
2018-07-21T13:55:45.933Z,27.99
2018-07-21T13:58:12.945Z,28.12
2018-07-21T14:00:39.965Z,28.14
2018-07-21T14:03:06.963Z,27.88
2018-07-21T14:05:33.972Z,27.97
2018-07-21T14:08:01.026Z,28.31
2018-07-21T14:12:48.584Z,28.11
2018-07-21T14:15:15.639Z,27.88
2018-07-21T14:17:42.870Z,27.90
2018-07-21T14:20:09.944Z,28.13
2018-07-21T14:22:37.419Z,27.91
2018-07-21T14:25:04.818Z,27.87
2018-07-21T14:27:32.288Z,27.58
2018-07-21T14:29:59.897Z,27.61
2018-07-21T14:32:27.237Z,27.65
2018-07-21T14:34:54.676Z,27.79
2018-07-21T14:37:22.114Z,27.95
2018-07-21T14:39:49.538Z,27.96
2018-07-21T14:42:16.997Z,28.04
2018-07-21T14:44:44.446Z,28.04
2018-07-21T14:47:11.491Z,27.90
2018-07-21T14:49:39.083Z,28.05
2018-07-21T14:52:06.624Z,28.13
2018-07-21T14:54:34.258Z,28.29
2018-07-21T14:57:01.894Z,28.26
2018-07-21T14:59:29.430Z,28.28
2018-07-21T15:01:56.860Z,28.43
2018-07-21T15:04:24.356Z,28.42
2018-07-21T15:06:51.810Z,28.13
2018-07-21T15:09:19.353Z,28.09
2018-07-21T15:11:46.973Z,27.78
2018-07-21T15:14:14.552Z,27.94
2018-07-21T15:16:42.032Z,28.23
2018-07-21T15:19:09.722Z,28.73
2018-07-21T15:21:37.147Z,28.45
2018-07-21T15:24:04.611Z,28.16
2018-07-21T15:26:32.544Z,28.08
2018-07-21T15:28:59.989Z,27.82
2018-07-21T15:31:27.391Z,27.66
2018-07-21T15:33:54.858Z,27.41
2018-07-21T15:36:22.270Z,27.28
2018-07-21T15:38:50.028Z,27.04
2018-07-21T15:41:17.530Z,26.85
2018-07-21T15:43:44.555Z,26.80
2018-07-21T15:46:12.119Z,26.96
2018-07-21T15:48:39.782Z,27.01
2018-07-21T15:51:07.255Z,27.19
2018-07-21T15:53:34.726Z,27.22
2018-07-21T15:56:02.435Z,27.09
2018-07-21T15:58:29.979Z,27.23
2018-07-21T16:00:57.386Z,27.45
2018-07-21T16:03:24.829Z,27.53
2018-07-21T16:05:52.349Z,27.61
2018-07-21T16:08:19.814Z,27.79
2018-07-21T16:10:47.873Z,27.79
2018-07-21T16:13:15.419Z,27.56
2018-07-21T16:15:42.908Z,27.35
2018-07-21T16:18:10.373Z,27.44
2018-07-21T16:20:37.873Z,27.38
2018-07-21T16:23:05.457Z,27.24
2018-07-21T16:25:32.934Z,27.07
2018-07-21T16:28:00.454Z,26.96
2018-07-21T16:30:27.984Z,27.11
2018-07-21T16:32:55.507Z,27.19
2018-07-21T16:35:22.945Z,27.48
2018-07-21T16:37:50.421Z,27.51
2018-07-21T16:40:17.410Z,27.27
2018-07-21T16:42:44.930Z,26.96
2018-07-21T16:45:13.018Z,27.22
2018-07-21T16:47:40.506Z,27.38
2018-07-21T16:50:08.015Z,27.34
2018-07-21T16:52:35.521Z,27.21
2018-07-21T16:55:02.486Z,27.13
2018-07-21T16:57:29.504Z,27.35
2018-07-21T16:59:56.633Z,27.17
2018-07-21T17:02:24.074Z,26.99
2018-07-21T17:04:51.529Z,27.13
2018-07-21T17:07:19.036Z,27.19
2018-07-21T17:09:46.441Z,27.14
2018-07-21T17:12:13.919Z,26.93
2018-07-21T17:14:41.394Z,26.84
2018-07-21T17:17:08.891Z,26.69
2018-07-21T17:19:36.377Z,26.80
2018-07-21T17:22:03.928Z,26.75
2018-07-21T17:24:31.507Z,26.61
2018-07-21T17:26:59.002Z,26.60
2018-07-21T17:29:26.471Z,26.73
2018-07-21T17:31:53.947Z,26.86
2018-07-21T17:34:21.402Z,26.94
2018-07-21T17:36:48.880Z,27.11
2018-07-21T17:39:16.671Z,27.27
2018-07-21T17:41:43.619Z,27.22
2018-07-21T17:44:11.140Z,27.27
2018-07-21T17:46:38.619Z,27.39
2018-07-21T17:49:06.152Z,27.22
2018-07-21T17:51:33.816Z,27.17
2018-07-21T17:54:01.293Z,27.14
2018-07-21T17:56:28.835Z,27.14
2018-07-21T17:58:56.303Z,27.05
2018-07-21T18:01:23.824Z,26.89
2018-07-21T18:03:51.294Z,26.51
2018-07-21T18:06:18.736Z,26.24
2018-07-21T18:08:46.247Z,26.21
2018-07-21T18:11:13.714Z,26.10
2018-07-21T18:13:41.330Z,26.08
2018-07-21T18:16:08.867Z,26.02
2018-07-21T18:18:36.282Z,26.01
2018-07-21T18:21:03.925Z,26.11
2018-07-21T18:23:31.461Z,26.03
2018-07-21T18:25:59.012Z,26.02
2018-07-21T18:28:26.492Z,26.07
2018-07-21T18:30:54.149Z,26.04
2018-07-21T18:33:21.540Z,26.03
2018-07-21T18:35:49.024Z,26.01
2018-07-21T18:38:16.543Z,25.97
2018-07-21T18:40:43.999Z,25.83
2018-07-21T18:43:11.468Z,25.82
2018-07-21T18:45:39.094Z,25.88
2018-07-21T18:48:06.487Z,25.82
2018-07-21T18:50:33.470Z,25.68
2018-07-21T18:53:00.922Z,25.51
2018-07-21T18:55:28.360Z,25.40
2018-07-21T18:57:55.816Z,25.37
2018-07-21T19:00:23.234Z,25.31
2018-07-21T19:02:50.750Z,25.23
2018-07-21T19:05:17.837Z,25.13
2018-07-21T19:07:44.840Z,25.07
2018-07-21T19:10:12.299Z,25.03
2018-07-21T19:12:39.776Z,25.00
2018-07-21T19:15:07.380Z,24.94
2018-07-21T19:17:34.844Z,24.84
2018-07-21T19:20:02.322Z,24.68
2018-07-21T19:22:29.773Z,24.57
2018-07-21T19:24:57.260Z,24.49
2018-07-21T19:27:31.676Z,24.51
2018-07-21T19:29:58.728Z,24.53
2018-07-21T19:32:25.739Z,24.51
2018-07-21T19:34:53.372Z,24.45
2018-07-21T19:37:20.873Z,24.37
2018-07-21T19:39:48.433Z,24.35
2018-07-21T19:42:15.383Z,24.42
2018-07-21T19:44:42.834Z,24.42
2018-07-21T19:47:11.247Z,24.32
2018-07-21T19:49:38.203Z,24.28
2018-07-21T19:52:05.311Z,24.25
2018-07-21T19:54:32.420Z,24.23
2018-07-21T19:56:59.963Z,24.21
2018-07-21T19:59:27.904Z,24.14
2018-07-21T20:01:55.521Z,24.08
2018-07-21T20:04:23.011Z,24.03
2018-07-21T20:06:50.531Z,24.00
2018-07-21T20:09:18.044Z,23.97
2018-07-21T20:11:45.532Z,23.95
2018-07-21T20:14:13.030Z,23.94
2018-07-21T20:16:40.483Z,23.94
2018-07-21T20:19:08.021Z,23.96
2018-07-21T20:21:35.553Z,23.95
2018-07-21T20:24:02.526Z,23.91
2018-07-21T20:26:29.982Z,23.85
2018-07-21T20:28:57.511Z,23.83
2018-07-21T20:31:25.030Z,23.81
2018-07-21T20:33:52.689Z,23.80
2018-07-21T20:36:20.142Z,23.86
2018-07-21T20:38:47.660Z,23.84
2018-07-21T20:41:15.206Z,23.86
2018-07-21T20:43:42.667Z,23.82
2018-07-21T20:46:10.068Z,23.83
2018-07-21T20:48:37.525Z,23.85
2018-07-21T20:51:05.080Z,23.82
2018-07-21T20:53:32.637Z,23.80
2018-07-21T20:56:00.035Z,23.78
2018-07-21T20:58:27.507Z,23.78
2018-07-21T21:00:55.005Z,23.70
2018-07-21T21:03:22.497Z,23.64
2018-07-21T21:05:50.000Z,23.57
2018-07-21T21:08:17.409Z,23.57
2018-07-21T21:10:45.036Z,23.52
2018-07-21T21:13:12.543Z,23.51
2018-07-21T21:15:39.950Z,23.49
2018-07-21T21:18:07.446Z,23.53
2018-07-21T21:20:35.072Z,23.55
2018-07-21T21:23:02.784Z,23.54
2018-07-21T21:25:30.276Z,23.60
2018-07-21T21:27:57.919Z,23.61
2018-07-21T21:30:25.380Z,23.54
2018-07-21T21:32:52.873Z,23.52
2018-07-21T21:35:20.352Z,23.48
2018-07-21T21:37:47.821Z,23.43
2018-07-21T21:40:15.364Z,23.36
2018-07-21T21:42:42.999Z,23.29
2018-07-21T21:45:10.409Z,23.31
2018-07-21T21:47:37.817Z,23.30
2018-07-21T21:50:05.255Z,23.32
2018-07-21T21:52:33.674Z,23.37
2018-07-21T21:55:02.403Z,23.37
2018-07-21T21:57:29.915Z,23.40
2018-07-21T21:59:57.454Z,23.43
2018-07-21T22:02:25.468Z,23.36
2018-07-21T22:04:53.074Z,23.30
2018-07-21T22:07:20.807Z,23.25
2018-07-21T22:09:48.272Z,23.20
2018-07-21T22:12:15.779Z,23.11
2018-07-21T22:14:43.663Z,23.10
2018-07-21T22:17:11.473Z,23.02
2018-07-21T22:19:38.925Z,22.98
2018-07-21T22:22:06.372Z,23.00
2018-07-21T22:24:34.034Z,23.06
2018-07-21T22:27:01.523Z,22.93
2018-07-21T22:29:28.998Z,22.83
2018-07-21T22:31:56.451Z,22.73
2018-07-21T22:34:23.971Z,22.66
2018-07-21T22:36:51.418Z,22.62
2018-07-21T22:39:18.874Z,22.60
2018-07-21T22:41:46.380Z,22.61
2018-07-21T22:44:13.919Z,22.61
2018-07-21T22:46:41.301Z,22.65
2018-07-21T22:49:11.008Z,22.68
2018-07-21T22:51:38.626Z,22.62
2018-07-21T22:54:06.121Z,22.67
2018-07-21T22:56:33.531Z,22.71
2018-07-21T22:59:00.989Z,22.69
2018-07-21T23:01:28.490Z,22.70
2018-07-21T23:03:55.956Z,22.74
2018-07-21T23:06:23.432Z,22.73
2018-07-21T23:08:50.900Z,22.61
2018-07-21T23:11:18.388Z,22.66
2018-07-21T23:13:45.854Z,22.68
2018-07-21T23:16:13.298Z,22.58
2018-07-21T23:18:40.787Z,22.60
2018-07-21T23:21:08.383Z,22.48
2018-07-21T23:23:35.786Z,22.38
2018-07-21T23:26:03.228Z,22.30
2018-07-21T23:28:30.747Z,22.24
2018-07-21T23:30:58.209Z,22.18
2018-07-21T23:33:25.674Z,22.19
2018-07-21T23:35:53.137Z,22.21
2018-07-21T23:38:20.575Z,22.27
2018-07-21T23:40:48.007Z,22.24
2018-07-21T23:43:15.476Z,22.23
2018-07-21T23:45:42.983Z,22.16
2018-07-21T23:48:10.623Z,22.11
2018-07-21T23:50:38.181Z,22.06
2018-07-21T23:53:05.769Z,22.00
2018-07-21T23:55:33.254Z,22.00
2018-07-21T23:58:00.707Z,22.03
